createdAt,value
2019-03-20T00:01:14.659Z,98066.03
2019-03-20T00:03:46.398Z,98064.39
2019-03-20T00:06:18.192Z,98069.91
2019-03-20T00:08:50.002Z,98069.02
2019-03-20T00:11:21.722Z,98067.33
2019-03-20T00:13:53.536Z,98079.69
2019-03-20T00:16:25.599Z,98074.34
2019-03-20T00:18:57.310Z,98078.52
2019-03-20T00:21:29.030Z,98084.09
2019-03-20T00:24:00.820Z,98079.69
2019-03-20T00:26:32.545Z,98077.23
2019-03-20T00:29:04.334Z,98075.14
2019-03-20T00:31:37.202Z,98075.37
2019-03-20T00:34:09.974Z,98074.34
2019-03-20T00:36:42.036Z,98077.50
2019-03-20T00:39:13.817Z,98079.12
2019-03-20T00:41:45.536Z,98083.44
2019-03-20T00:44:17.240Z,98081.44
2019-03-20T00:46:49.314Z,98082.45
2019-03-20T00:49:22.080Z,98086.15
2019-03-20T00:51:53.808Z,98086.69
2019-03-20T00:54:25.603Z,98082.50
2019-03-20T00:56:57.356Z,98080.23
2019-03-20T00:59:29.137Z,98085.75
2019-03-20T01:02:01.187Z,98075.42
2019-03-20T01:04:33.179Z,98078.94
2019-03-20T01:07:05.049Z,98072.89
2019-03-20T01:09:36.833Z,98076.58
2019-03-20T01:12:09.938Z,98076.14
2019-03-20T01:14:41.723Z,98078.53
2019-03-20T01:17:13.530Z,98073.55
2019-03-20T01:19:45.236Z,98078.26
2019-03-20T01:22:16.961Z,98065.56
2019-03-20T01:24:48.739Z,98070.82
2019-03-20T01:27:21.424Z,98067.33
2019-03-20T01:29:53.464Z,98067.38
2019-03-20T01:32:25.189Z,98064.00
2019-03-20T01:34:56.884Z,98068.34
2019-03-20T01:37:28.669Z,98071.22
2019-03-20T01:40:00.717Z,98070.17
2019-03-20T01:42:33.504Z,98065.30
2019-03-20T01:45:05.749Z,98069.30
2019-03-20T01:47:37.496Z,98072.56
2019-03-20T01:50:10.218Z,98072.12
2019-03-20T01:52:41.944Z,98074.70
2019-03-20T01:55:13.805Z,98074.70
2019-03-20T01:57:46.499Z,98070.83
2019-03-20T02:00:18.293Z,98069.32
2019-03-20T02:02:50.310Z,98071.91
2019-03-20T02:05:22.029Z,98072.75
2019-03-20T02:07:53.825Z,98070.61
2019-03-20T02:10:25.683Z,98071.41
2019-03-20T02:12:58.861Z,98070.78
2019-03-20T02:15:38.617Z,98073.00
2019-03-20T02:18:04.257Z,98067.37
2019-03-20T02:20:35.974Z,98074.70
2019-03-20T02:23:07.770Z,98068.22
2019-03-20T02:25:39.905Z,98072.05
2019-03-20T02:28:11.611Z,98068.27
2019-03-20T02:30:43.396Z,98061.69
2019-03-20T02:33:15.287Z,98067.13
2019-03-20T02:35:51.851Z,98066.36
2019-03-20T02:38:20.397Z,98062.70
2019-03-20T02:40:52.103Z,98073.02
2019-03-20T02:43:24.006Z,98069.59
2019-03-20T02:45:55.678Z,98075.67
2019-03-20T02:48:27.397Z,98076.95
2019-03-20T02:50:59.116Z,98075.16
2019-03-20T02:53:30.838Z,98082.16
2019-03-20T02:56:02.620Z,98084.83
2019-03-20T02:58:35.340Z,98084.83
2019-03-20T03:01:07.053Z,98085.71
2019-03-20T03:03:39.943Z,98080.27
2019-03-20T03:06:11.633Z,98087.11
2019-03-20T03:08:43.425Z,98083.97
2019-03-20T03:11:15.213Z,98081.83
2019-03-20T03:13:46.968Z,98077.00
2019-03-20T03:16:18.752Z,98080.06
2019-03-20T03:18:50.457Z,98080.91
2019-03-20T03:21:22.274Z,98083.31
2019-03-20T03:23:53.989Z,98079.45
2019-03-20T03:26:25.966Z,98081.55
2019-03-20T03:28:57.690Z,98081.52
2019-03-20T03:31:29.409Z,98084.91
2019-03-20T03:34:01.162Z,98083.84
2019-03-20T03:36:32.926Z,98081.52
2019-03-20T03:39:07.307Z,98077.84
2019-03-20T03:41:39.543Z,98079.80
2019-03-20T03:44:11.956Z,98085.28
2019-03-20T03:46:43.656Z,98088.52
2019-03-20T03:49:15.512Z,98092.46
2019-03-20T03:51:47.528Z,98094.34
2019-03-20T03:54:19.328Z,98105.45
2019-03-20T03:56:51.466Z,98102.44
2019-03-20T03:59:23.207Z,98102.03
2019-03-20T04:01:54.990Z,98111.05
2019-03-20T04:04:26.784Z,98104.94
2019-03-20T04:06:58.650Z,98104.72
2019-03-20T04:09:30.393Z,98108.95
2019-03-20T04:12:02.167Z,98107.40
2019-03-20T04:14:34.006Z,98112.11
2019-03-20T04:17:22.536Z,98119.92
2019-03-20T04:19:54.282Z,98120.75
2019-03-20T04:22:25.999Z,98124.07
2019-03-20T04:24:57.986Z,98116.85
2019-03-20T04:27:29.792Z,98118.58
2019-03-20T04:30:01.593Z,98118.52
2019-03-20T04:32:34.696Z,98120.23
2019-03-20T04:35:06.684Z,98119.30
2019-03-20T04:37:38.489Z,98125.65
2019-03-20T04:40:11.235Z,98125.86
2019-03-20T04:42:42.958Z,98126.94
2019-03-20T04:45:14.932Z,98126.43
2019-03-20T04:47:46.822Z,98123.20
2019-03-20T04:50:19.146Z,98129.10
2019-03-20T04:52:51.014Z,98134.04
2019-03-20T04:55:22.955Z,98135.77
2019-03-20T04:57:54.738Z,98139.30
2019-03-20T05:00:26.470Z,98144.55
2019-03-20T05:02:58.401Z,98145.54
2019-03-20T05:05:30.205Z,98151.53
2019-03-20T05:08:02.069Z,98148.48
2019-03-20T05:10:33.958Z,98146.17
2019-03-20T05:13:06.006Z,98149.81
2019-03-20T05:15:37.892Z,98148.15
2019-03-20T05:18:09.830Z,98154.99
2019-03-20T05:20:41.788Z,98160.52
2019-03-20T05:23:13.699Z,98165.63
2019-03-20T05:25:45.752Z,98165.83
2019-03-20T05:28:18.127Z,98165.97
2019-03-20T05:30:50.048Z,98165.69
2019-03-20T05:33:21.989Z,98176.36
2019-03-20T05:35:53.815Z,98178.59
2019-03-20T05:38:25.743Z,98183.72
2019-03-20T05:40:57.644Z,98183.05
2019-03-20T05:43:29.730Z,98184.71
2019-03-20T05:46:02.998Z,98181.45
2019-03-20T05:48:34.689Z,98185.97
2019-03-20T05:51:06.564Z,98188.10
2019-03-20T05:53:38.268Z,98190.58
2019-03-20T05:56:10.195Z,98195.39
2019-03-20T05:58:41.908Z,98197.69
2019-03-20T06:01:13.650Z,98197.83
2019-03-20T06:03:45.362Z,98195.86
2019-03-20T06:06:18.266Z,98197.16
2019-03-20T06:08:49.988Z,98201.69
2019-03-20T06:11:21.799Z,98204.09
2019-03-20T06:13:53.607Z,98202.87
2019-03-20T06:16:25.419Z,98207.95
2019-03-20T06:18:57.284Z,98209.50
2019-03-20T06:21:29.991Z,98207.59
2019-03-20T06:24:01.710Z,98215.15
2019-03-20T06:26:33.748Z,98215.82
2019-03-20T06:29:05.527Z,98210.30
2019-03-20T06:31:37.243Z,98210.95
2019-03-20T06:34:10.024Z,98216.92
2019-03-20T06:36:41.746Z,98213.31
2019-03-20T06:39:13.538Z,98222.08
2019-03-20T06:41:45.377Z,98214.88
2019-03-20T06:44:17.133Z,98214.16
2019-03-20T06:46:49.003Z,98219.02
2019-03-20T06:49:20.734Z,98217.00
2019-03-20T06:51:52.738Z,98221.73
2019-03-20T06:54:24.533Z,98226.57
2019-03-20T06:56:56.256Z,98222.28
2019-03-20T07:00:30.478Z,98224.53
2019-03-20T07:03:03.544Z,98226.66
2019-03-20T07:06:10.392Z,98237.36
2019-03-20T07:09:05.812Z,98241.21
2019-03-20T07:11:40.566Z,98242.59
2019-03-20T07:14:12.300Z,98241.77
2019-03-20T07:16:44.312Z,98243.14
2019-03-20T07:19:16.093Z,98247.07
2019-03-20T07:21:47.890Z,98252.73
2019-03-20T07:24:19.683Z,98255.75
2019-03-20T07:26:51.826Z,98258.88
2019-03-20T07:29:23.554Z,98256.80
2019-03-20T07:31:55.345Z,98252.67
2019-03-20T07:34:27.084Z,98258.80
2019-03-20T07:36:58.818Z,98257.48
2019-03-20T07:39:31.014Z,98257.20
2019-03-20T07:42:02.819Z,98256.30
2019-03-20T07:44:34.879Z,98265.02
2019-03-20T07:47:06.734Z,98268.56
2019-03-20T07:49:38.460Z,98262.18
2019-03-20T07:52:10.191Z,98265.84
2019-03-20T07:54:41.884Z,98266.63
2019-03-20T07:57:13.702Z,98267.92
2019-03-20T07:59:45.746Z,98265.97
2019-03-20T08:02:17.522Z,98271.83
2019-03-20T08:04:50.170Z,98267.02
2019-03-20T08:07:21.872Z,98263.95
2019-03-20T08:09:53.585Z,98269.05
2019-03-20T08:12:25.309Z,98273.97
2019-03-20T08:14:57.093Z,98270.05
2019-03-20T08:17:28.841Z,98269.48
2019-03-20T08:20:00.542Z,98272.53
2019-03-20T08:22:32.251Z,98282.80
2019-03-20T08:25:04.035Z,98284.70
2019-03-20T08:27:37.203Z,98277.77
2019-03-20T08:30:13.732Z,98277.50
2019-03-20T08:32:45.706Z,98278.77
2019-03-20T08:35:18.643Z,98280.02
2019-03-20T08:37:50.424Z,98271.91
2019-03-20T08:40:22.253Z,98280.97
2019-03-20T08:45:43.567Z,98280.64
2019-03-20T08:48:15.525Z,98276.48
2019-03-20T08:50:47.294Z,98279.55
2019-03-20T08:53:19.000Z,98275.00
2019-03-20T08:55:51.006Z,98277.41
2019-03-20T08:58:33.100Z,98275.39
2019-03-20T09:01:05.013Z,98269.46
2019-03-20T09:03:36.707Z,98280.84
2019-03-20T09:06:08.622Z,98279.51
2019-03-20T09:08:40.335Z,98275.77
2019-03-20T09:11:12.099Z,98282.27
2019-03-20T09:13:43.884Z,98280.50
2019-03-20T09:16:15.700Z,98283.53
2019-03-20T09:18:47.709Z,98274.62
2019-03-20T09:21:20.477Z,98289.92
2019-03-20T09:23:52.829Z,98289.22
2019-03-20T09:26:24.705Z,98281.58
2019-03-20T09:28:56.440Z,98286.25
2019-03-20T09:31:28.205Z,98290.48
2019-03-20T09:33:59.953Z,98290.78
2019-03-20T09:36:42.407Z,98283.91
2019-03-20T09:39:08.087Z,98288.23
2019-03-20T09:41:39.781Z,98288.23
2019-03-20T09:44:11.494Z,98289.91
2019-03-20T09:46:43.274Z,98291.31
2019-03-20T09:49:15.033Z,98291.05
2019-03-20T09:51:47.008Z,98287.23
2019-03-20T09:54:18.901Z,98284.70
2019-03-20T09:56:50.939Z,98282.84
2019-03-20T09:59:22.916Z,98288.06
2019-03-20T10:01:54.953Z,98288.24
2019-03-20T10:04:26.728Z,98281.00
2019-03-20T10:06:58.427Z,98283.39
2019-03-20T10:09:30.251Z,98284.69
2019-03-20T10:12:02.225Z,98293.55
2019-03-20T10:14:34.095Z,98292.41
2019-03-20T10:17:06.092Z,98292.32
2019-03-20T10:19:37.821Z,98293.16
2019-03-20T10:22:09.505Z,98294.25
2019-03-20T10:24:41.574Z,98290.73
2019-03-20T10:27:13.265Z,98291.95
2019-03-20T10:29:45.311Z,98296.47
2019-03-20T10:32:17.086Z,98294.63
2019-03-20T10:34:48.832Z,98298.53
2019-03-20T10:37:20.917Z,98293.23
2019-03-20T10:39:52.666Z,98302.19
2019-03-20T10:42:24.401Z,98300.31
2019-03-20T10:44:56.251Z,98304.07
2019-03-20T10:47:27.984Z,98302.48
2019-03-20T10:49:59.763Z,98298.75
2019-03-20T10:52:31.580Z,98296.80
2019-03-20T10:55:07.934Z,98297.27
2019-03-20T10:57:40.102Z,98292.19
2019-03-20T11:00:16.376Z,98288.15
2019-03-20T11:02:48.627Z,98296.56
2019-03-20T11:05:20.925Z,98287.69
2019-03-20T11:07:52.805Z,98287.11
2019-03-20T11:10:24.881Z,98292.73
2019-03-20T11:12:56.923Z,98279.51
2019-03-20T11:15:29.896Z,98285.94
2019-03-20T11:18:01.770Z,98283.44
2019-03-20T11:20:33.599Z,98288.74
2019-03-20T11:23:05.479Z,98283.95
2019-03-20T11:25:37.288Z,98277.48
2019-03-20T11:28:09.607Z,98281.90
2019-03-20T11:30:41.516Z,98274.64
2019-03-20T11:33:13.251Z,98274.28
2019-03-20T11:35:45.211Z,98278.22
2019-03-20T11:38:17.030Z,98272.47
2019-03-20T11:40:48.835Z,98264.41
2019-03-20T11:43:20.650Z,98271.19
2019-03-20T11:45:52.807Z,98265.37
2019-03-20T11:48:24.629Z,98256.31
2019-03-20T11:50:56.459Z,98260.44
2019-03-20T11:53:28.284Z,98258.14
2019-03-20T11:56:01.169Z,98250.33
2019-03-20T11:58:32.996Z,98252.81
2019-03-20T12:01:05.121Z,98253.00
2019-03-20T12:03:36.906Z,98247.24
2019-03-20T12:06:09.989Z,98239.11
2019-03-20T12:08:41.802Z,98231.63
2019-03-20T12:11:15.835Z,98233.41
2019-03-20T12:13:47.983Z,98227.30
2019-03-20T12:16:19.819Z,98219.63
2019-03-20T12:18:51.634Z,98220.58
2019-03-20T12:21:23.435Z,98213.71
2019-03-20T12:23:55.189Z,98208.85
2019-03-20T12:26:27.034Z,98205.27
2019-03-20T12:28:59.329Z,98202.93
2019-03-20T12:31:31.341Z,98211.11
2019-03-20T12:34:03.139Z,98211.72
2019-03-20T12:36:35.074Z,98205.31
2019-03-20T12:39:09.617Z,98207.66
2019-03-20T12:41:41.453Z,98206.40
2019-03-20T12:44:13.508Z,98199.58
2019-03-20T12:46:46.413Z,98197.09
2019-03-20T12:49:18.241Z,98188.63
2019-03-20T12:51:50.995Z,98190.70
2019-03-20T12:54:22.897Z,98193.77
2019-03-20T12:56:54.661Z,98191.33
2019-03-20T12:59:26.425Z,98187.91
2019-03-20T13:01:58.257Z,98195.44
2019-03-20T13:04:30.069Z,98191.95
2019-03-20T13:07:01.838Z,98181.20
2019-03-20T13:09:33.617Z,98188.33
2019-03-20T13:12:05.535Z,98178.89
2019-03-20T13:14:37.500Z,98183.84
2019-03-20T13:17:10.232Z,98172.78
2019-03-20T13:19:42.093Z,98170.02
2019-03-20T13:22:13.931Z,98167.64
2019-03-20T13:24:46.105Z,98167.45
2019-03-20T13:27:18.011Z,98164.17
2019-03-20T13:29:49.830Z,98166.27
2019-03-20T13:32:21.954Z,98168.51
2019-03-20T13:34:53.699Z,98171.59
2019-03-20T13:37:25.894Z,98168.31
2019-03-20T13:39:57.686Z,98166.64
2019-03-20T13:42:29.894Z,98168.19
2019-03-20T13:45:01.768Z,98164.95
2019-03-20T13:47:33.529Z,98161.81
2019-03-20T13:50:05.971Z,98167.48
2019-03-20T13:52:37.846Z,98160.22
2019-03-20T13:55:10.498Z,98158.05
2019-03-20T13:57:42.708Z,98155.84
2019-03-20T14:00:21.307Z,98156.87
2019-03-20T14:02:53.637Z,98151.83
2019-03-20T14:05:25.545Z,98153.18
2019-03-20T14:07:57.419Z,98149.89
2019-03-20T14:10:29.264Z,98145.95
2019-03-20T14:13:01.197Z,98148.44
2019-03-20T14:15:33.013Z,98148.80
2019-03-20T14:18:04.914Z,98148.98
2019-03-20T14:20:36.810Z,98141.77
2019-03-20T14:23:10.068Z,98143.83
2019-03-20T14:25:42.052Z,98136.67
2019-03-20T14:28:13.770Z,98142.83
2019-03-20T14:30:45.601Z,98146.31
2019-03-20T14:33:17.438Z,98135.67
2019-03-20T14:35:49.277Z,98133.41
2019-03-20T14:38:21.439Z,98132.17
2019-03-20T14:40:53.240Z,98135.76
2019-03-20T14:43:25.053Z,98127.34
2019-03-20T14:45:56.987Z,98130.11
2019-03-20T14:48:28.747Z,98122.71
2019-03-20T14:51:01.617Z,98125.34
2019-03-20T14:53:33.434Z,98123.77
2019-03-20T14:56:05.432Z,98133.06
2019-03-20T14:58:37.622Z,98128.41
2019-03-20T15:01:10.094Z,98130.43
2019-03-20T15:03:42.284Z,98134.78
2019-03-20T15:06:14.455Z,98129.95
2019-03-20T15:08:46.186Z,98124.93
2019-03-20T15:11:18.034Z,98127.16
2019-03-20T15:13:49.794Z,98130.79
2019-03-20T15:16:22.225Z,98125.03
2019-03-20T15:18:54.038Z,98125.56
2019-03-20T15:21:25.867Z,98125.35
2019-03-20T15:23:57.651Z,98122.11
2019-03-20T15:26:31.255Z,98116.90
2019-03-20T15:29:03.036Z,98116.89
2019-03-20T15:31:34.821Z,98122.23
2019-03-20T15:34:06.787Z,98127.26
2019-03-20T15:36:38.589Z,98119.73
2019-03-20T15:39:10.406Z,98123.88
2019-03-20T15:41:42.297Z,98132.70
2019-03-20T15:44:14.101Z,98127.42
2019-03-20T15:46:45.925Z,98128.44
2019-03-20T15:49:17.698Z,98127.23
2019-03-20T15:51:49.547Z,98129.68
2019-03-20T15:54:21.374Z,98122.80
2019-03-20T15:56:56.013Z,98133.08
2019-03-20T15:59:28.631Z,98138.43
2019-03-20T16:02:00.569Z,98140.59
2019-03-20T16:04:32.435Z,98146.56
2019-03-20T16:07:04.299Z,98140.78
2019-03-20T16:09:36.052Z,98140.36
2019-03-20T16:12:07.957Z,98150.13
2019-03-20T16:14:40.167Z,98152.39
2019-03-20T16:17:12.373Z,98149.05
2019-03-20T16:19:44.169Z,98151.10
2019-03-20T16:22:16.041Z,98153.78
2019-03-20T16:24:47.806Z,98157.08
2019-03-20T16:27:19.627Z,98155.06
2019-03-20T16:29:51.936Z,98155.14
2019-03-20T16:32:23.706Z,98162.75
2019-03-20T16:34:55.607Z,98165.08
2019-03-20T16:37:27.333Z,98160.60
2019-03-20T16:39:59.150Z,98158.30
2019-03-20T16:42:30.969Z,98159.94
2019-03-20T16:45:02.753Z,98160.28
2019-03-20T16:47:34.588Z,98159.09
2019-03-20T16:50:07.656Z,98158.63
2019-03-20T16:52:39.494Z,98164.41
2019-03-20T16:55:12.296Z,98161.08
2019-03-20T16:57:44.547Z,98165.72
2019-03-20T17:00:25.617Z,98167.28
2019-03-20T17:02:57.641Z,98177.55
2019-03-20T17:05:30.048Z,98183.78
2019-03-20T17:08:01.970Z,98178.55
2019-03-20T17:10:38.815Z,98180.78
2019-03-20T17:13:10.626Z,98185.91
2019-03-20T17:15:42.823Z,98182.34
2019-03-20T17:18:14.769Z,98184.73
2019-03-20T17:20:46.687Z,98188.97
2019-03-20T17:23:18.609Z,98193.13
2019-03-20T17:25:51.703Z,98197.28
2019-03-20T17:28:23.904Z,98196.39
2019-03-20T17:30:55.758Z,98192.55
2019-03-20T17:33:28.449Z,98202.08
2019-03-20T17:36:00.207Z,98204.44
2019-03-20T17:38:32.074Z,98206.16
2019-03-20T17:41:03.913Z,98207.35
2019-03-20T17:43:35.748Z,98213.11
2019-03-20T17:46:08.116Z,98210.22
2019-03-20T17:48:40.063Z,98204.39
2019-03-20T17:51:12.244Z,98205.39
2019-03-20T17:53:44.028Z,98205.42
2019-03-20T17:56:15.772Z,98204.30
2019-03-20T17:58:47.678Z,98201.75
2019-03-20T18:01:19.433Z,98200.53
2019-03-20T18:03:51.277Z,98201.94
2019-03-20T18:06:23.115Z,98203.93
2019-03-20T18:08:54.950Z,98213.28
2019-03-20T18:11:26.701Z,98215.33
2019-03-20T18:13:58.522Z,98216.55
2019-03-20T18:16:30.275Z,98213.09
2019-03-20T18:19:02.364Z,98225.57
2019-03-20T18:21:34.256Z,98227.39
2019-03-20T18:24:06.355Z,98241.09
2019-03-20T18:26:38.159Z,98235.95
2019-03-20T18:29:09.915Z,98245.91
2019-03-20T18:31:45.977Z,98238.13
2019-03-20T18:34:15.639Z,98245.35
2019-03-20T18:36:47.695Z,98249.44
2019-03-20T18:39:20.655Z,98247.66
2019-03-20T18:41:57.661Z,98256.75
2019-03-20T18:44:26.093Z,98259.22
2019-03-20T18:46:57.866Z,98261.55
2019-03-20T18:49:29.650Z,98261.30
2019-03-20T18:52:01.374Z,98262.47
2019-03-20T18:54:33.153Z,98266.22
2019-03-20T18:57:04.953Z,98265.59
2019-03-20T18:59:36.695Z,98261.30
2019-03-20T19:02:08.713Z,98268.41
2019-03-20T19:04:40.756Z,98275.24
2019-03-20T19:07:12.471Z,98271.04
2019-03-20T19:09:44.350Z,98273.66
2019-03-20T19:12:16.275Z,98276.31
2019-03-20T19:14:48.292Z,98282.47
2019-03-20T19:17:20.114Z,98281.33
2019-03-20T19:19:52.008Z,98286.00
2019-03-20T19:22:24.003Z,98294.13
2019-03-20T19:24:55.833Z,98291.05
2019-03-20T19:27:27.776Z,98289.91
2019-03-20T19:29:59.666Z,98286.93
2019-03-20T19:32:31.433Z,98281.86
2019-03-20T19:35:03.288Z,98291.91
2019-03-20T19:37:34.997Z,98292.73
2019-03-20T19:40:07.485Z,98291.56
2019-03-20T19:42:39.201Z,98290.80
2019-03-20T19:45:11.593Z,98293.39
2019-03-20T19:47:43.458Z,98295.18
2019-03-20T19:50:15.349Z,98296.19
2019-03-20T19:52:47.197Z,98294.48
2019-03-20T19:55:19.290Z,98299.44
2019-03-20T19:57:51.009Z,98297.86
2019-03-20T20:00:22.910Z,98296.06
2019-03-20T20:02:54.874Z,98298.56
2019-03-20T20:05:26.740Z,98301.52
2019-03-20T20:07:58.459Z,98298.59
2019-03-20T20:10:30.187Z,98295.33
2019-03-20T20:13:02.045Z,98298.48
2019-03-20T20:15:33.917Z,98292.59
2019-03-20T20:18:06.123Z,98295.80
2019-03-20T20:20:38.083Z,98298.16
2019-03-20T20:23:11.428Z,98302.07
2019-03-20T20:25:43.229Z,98299.00
2019-03-20T20:28:14.947Z,98299.09
2019-03-20T20:30:46.657Z,98299.75
2019-03-20T20:33:18.798Z,98300.13
2019-03-20T20:35:50.593Z,98300.28
2019-03-20T20:38:22.311Z,98305.74
2019-03-20T20:40:54.142Z,98306.98
2019-03-20T20:43:26.462Z,98309.78
2019-03-20T20:45:59.038Z,98310.61
2019-03-20T20:48:30.780Z,98303.79
2019-03-20T20:51:02.538Z,98308.59
2019-03-20T20:53:34.244Z,98311.88
2019-03-20T20:56:06.189Z,98312.09
2019-03-20T20:58:37.913Z,98315.25
2019-03-20T21:01:09.713Z,98319.91
2019-03-20T21:03:41.469Z,98320.98
2019-03-20T21:06:13.246Z,98330.55
2019-03-20T21:08:44.947Z,98330.16
2019-03-20T21:11:16.676Z,98325.89
2019-03-20T21:13:48.382Z,98324.72
2019-03-20T21:16:20.992Z,98331.16
2019-03-20T21:19:32.603Z,98327.16
2019-03-20T21:23:03.539Z,98328.31
2019-03-20T21:25:36.416Z,98325.04
2019-03-20T21:29:00.787Z,98327.41
2019-03-20T21:31:48.239Z,98326.20
2019-03-20T21:35:36.986Z,98333.03
2019-03-20T21:38:07.934Z,98333.32
2019-03-20T21:41:32.828Z,98340.50
2019-03-20T21:44:42.973Z,98335.31
2019-03-20T21:47:35.738Z,98327.80
2019-03-20T21:51:11.704Z,98333.28
2019-03-20T21:54:41.717Z,98327.70
2019-03-20T21:58:20.542Z,98332.70
2019-03-20T22:02:01.290Z,98335.20
2019-03-20T22:04:33.878Z,98337.55
2019-03-20T22:07:11.160Z,98329.63
2019-03-20T22:11:00.381Z,98338.39
2019-03-20T22:13:58.157Z,98341.44
2019-03-20T22:17:50.186Z,98345.09
2019-03-20T22:20:46.379Z,98354.81
2019-03-20T22:24:27.025Z,98354.83
2019-03-20T22:28:09.413Z,98358.45
2019-03-20T22:30:41.968Z,98352.41
2019-03-20T22:34:07.361Z,98357.55
2019-03-20T22:36:42.842Z,98357.59
2019-03-20T22:40:29.893Z,98360.73
2019-03-20T22:43:29.705Z,98357.41
2019-03-20T22:47:14.493Z,98348.88
2019-03-20T22:50:19.108Z,98354.17
2019-03-20T22:53:36.664Z,98354.77
2019-03-20T22:56:56.012Z,98355.15
2019-03-20T22:59:28.610Z,98345.80
2019-03-20T23:02:19.432Z,98343.01
2019-03-20T23:04:56.616Z,98337.53
2019-03-20T23:07:29.357Z,98341.28
2019-03-20T23:10:02.327Z,98332.45
2019-03-20T23:12:35.622Z,98336.09
2019-03-20T23:15:11.088Z,98339.72
2019-03-20T23:17:43.605Z,98333.05
2019-03-20T23:20:19.988Z,98340.43
2019-03-20T23:22:52.753Z,98341.92
2019-03-20T23:25:25.289Z,98336.34
2019-03-20T23:27:58.163Z,98333.11
2019-03-20T23:30:30.685Z,98328.06
2019-03-20T23:33:03.211Z,98329.22
2019-03-20T23:35:35.765Z,98331.16
2019-03-20T23:38:08.261Z,98333.70
2019-03-20T23:40:40.764Z,98329.11
2019-03-20T23:43:13.689Z,98321.39
2019-03-20T23:45:46.196Z,98321.97
2019-03-20T23:48:49.446Z,98323.27
2019-03-20T23:51:23.747Z,98324.22
2019-03-20T23:53:57.540Z,98321.22
2019-03-20T23:56:32.862Z,98326.50
2019-03-20T23:59:05.998Z,98320.37
